Time;durP1;ratioP1;P1;durP2;ratioP2;P2;SDS_P1;SDS_P2;PMS_P1;PMS_P2;Temp;Humidity;BMP_temperature;BMP_pressure;BME280_temperature;BME280_humidity;BME280_pressure;Samples;Min_cycle;Max_cycle;Signal;HPM_P1;HPM_P2
2023/01/10 00:00:35;;;;;;;18.90;3.03;;;3.30;99.90;;;;;;4996908;28;20132;-30
2023/01/10 00:03:07;;;;;;;21.60;3.97;;;3.40;99.90;;;;;;5014006;28;20042;-30
2023/01/10 00:05:36;;;;;;;29.83;3.95;;;3.30;99.90;;;;;;5014639;28;20046;-31
2023/01/10 00:08:03;;;;;;;32.60;4.78;;;3.50;99.90;;;;;;5014005;28;20137;-30
2023/01/10 00:10:29;;;;;;;32.08;4.65;;;3.70;99.90;;;;;;5013398;28;20072;-31
2023/01/10 00:15:39;;;;;;;21.98;3.85;;;4.20;99.90;;;;;;5013969;28;20054;-31
2023/01/10 00:18:05;;;;;;;23.83;3.78;;;4.50;99.90;;;;;;5013875;28;20042;-31
2023/01/10 00:20:31;;;;;;;26.10;5.25;;;4.60;99.90;;;;;;5013859;28;20056;-31
2023/01/10 00:22:57;;;;;;;23.65;4.30;;;4.90;99.90;;;;;;5013842;28;20050;-33
2023/01/10 00:25:23;;;;;;;31.10;3.42;;;5.10;99.90;;;;;;4996301;28;20053;-31
2023/01/10 00:28:01;;;;;;;35.30;4.22;;;5.20;99.90;;;;;;5014425;28;20053;-31
2023/01/10 00:30:27;;;;;;;25.67;4.95;;;5.20;99.90;;;;;;4996862;28;20042;-32
2023/01/10 00:32:55;;;;;;;16.77;2.85;;;5.20;99.90;;;;;;5006778;28;20136;-31
2023/01/10 00:35:21;;;;;;;23.13;2.95;;;5.20;99.90;;;;;;5014620;28;20165;-32
2023/01/10 00:37:47;;;;;;;18.80;3.40;;;5.10;99.90;;;;;;5012608;28;20057;-32
2023/01/10 00:40:13;;;;;;;23.50;3.60;;;5.10;99.90;;;;;;5013729;28;20057;-31
2023/01/10 00:45:25;;;;;;;23.88;3.33;;;5.10;99.90;;;;;;5014272;28;20096;-32
2023/01/10 00:47:51;;;;;;;23.98;3.25;;;5.20;99.90;;;;;;5014270;28;20061;-31
2023/01/10 00:50:17;;;;;;;17.05;4.03;;;5.30;99.90;;;;;;5013247;28;20396;-32
2023/01/10 00:52:43;;;;;;;21.80;4.57;;;5.40;99.90;;;;;;5028508;28;20480;-32
2023/01/10 00:55:09;;;;;;;17.20;2.95;;;5.40;99.90;;;;;;5013633;28;20116;-31
2023/01/10 00:57:35;;;;;;;26.08;5.32;;;5.50;99.90;;;;;;5014127;28;20125;-31
2023/01/10 01:00:00;;;;;;;24.13;2.80;;;5.60;99.90;;;;;;5012375;28;20046;-32
2023/01/10 01:02:26;;;;;;;24.77;3.65;;;5.60;99.90;;;;;;5013456;28;20144;-33
2023/01/10 01:04:52;;;;;;;28.73;4.75;;;5.60;99.90;;;;;;5012115;28;20077;-32
2023/01/10 01:07:17;;;;;;;20.55;4.38;;;5.50;99.90;;;;;;5028765;28;20052;-32
2023/01/10 01:12:27;;;;;;;23.52;4.72;;;5.50;99.90;;;;;;5013771;28;20400;-31
2023/01/10 01:14:53;;;;;;;26.95;3.70;;;5.50;99.90;;;;;;5013457;28;20046;-32
2023/01/10 01:17:19;;;;;;;21.25;3.13;;;5.50;99.90;;;;;;5012434;28;20053;-32
2023/01/10 01:19:44;;;;;;;22.17;3.10;;;5.40;99.90;;;;;;5013001;28;20048;-32
2023/01/10 01:22:10;;;;;;;27.85;3.03;;;5.50;99.90;;;;;;5012484;28;20473;-33
2023/01/10 01:24:35;;;;;;;27.58;3.75;;;5.40;99.90;;;;;;5013266;28;20057;-32
2023/01/10 01:27:01;;;;;;;29.63;5.57;;;5.40;99.90;;;;;;5013346;28;20045;-32
2023/01/10 01:29:27;;;;;;;17.08;3.45;;;5.30;99.90;;;;;;5015650;28;20504;-32
2023/01/10 01:31:53;;;;;;;24.50;3.50;;;5.30;99.90;;;;;;5016345;28;20107;-33
2023/01/10 01:34:18;;;;;;;18.38;3.13;;;5.20;99.90;;;;;;5015612;28;20061;-32
2023/01/10 01:36:46;;;;;;;23.63;3.60;;;5.20;99.90;;;;;;5017285;28;20037;-32
2023/01/10 01:39:11;;;;;;;24.70;3.85;;;5.10;99.90;;;;;;5017220;28;20049;-32
2023/01/10 01:44:22;;;;;;;24.08;3.30;;;5.00;99.90;;;;;;4999004;28;20055;-32
2023/01/10 01:47:08;;;;;;;22.58;4.72;;;4.90;99.90;;;;;;5016563;28;20045;-32
2023/01/10 01:49:39;;;;;;;24.00;3.75;;;4.70;99.90;;;;;;4999789;28;20454;-32
2023/01/10 01:52:11;;;;;;;21.58;4.40;;;4.70;99.90;;;;;;5016465;28;20129;-32
2023/01/10 01:54:37;;;;;;;26.60;3.97;;;4.70;99.90;;;;;;5017010;28;20065;-31
2023/01/10 01:57:08;;;;;;;21.67;3.85;;;4.80;99.90;;;;;;4999064;28;20396;-32
2023/01/10 01:59:44;;;;;;;21.33;3.35;;;5.00;99.90;;;;;;5016346;28;20061;-32
2023/01/10 02:02:18;;;;;;;19.50;3.67;;;5.20;99.90;;;;;;4998673;28;20050;-33
2023/01/10 02:05:12;;;;;;;20.33;3.78;;;5.50;99.90;;;;;;4999582;28;20128;-32
2023/01/10 02:07:42;;;;;;;15.27;3.00;;;5.50;99.90;;;;;;5016208;28;20054;-32
2023/01/10 02:10:32;;;;;;;22.35;3.70;;;5.70;99.90;;;;;;5016931;28;20053;-31
2023/01/10 02:13:02;;;;;;;28.17;3.63;;;5.80;99.90;;;;;;5016418;28;20052;-33
2023/01/10 02:15:29;;;;;;;17.90;2.42;;;5.70;99.90;;;;;;5016562;28;20049;-31
2023/01/10 02:17:56;;;;;;;16.75;3.17;;;5.70;99.90;;;;;;5016495;28;20432;-33
2023/01/10 02:20:22;;;;;;;15.35;3.15;;;5.70;99.90;;;;;;5016466;28;20046;-31
2023/01/10 02:23:26;;;;;;;21.02;3.42;;;5.70;99.90;;;;;;5016067;28;20045;-32
2023/01/10 02:26:04;;;;;;;13.40;1.75;;;5.70;99.90;;;;;;5016438;28;20042;-32
2023/01/10 02:28:44;;;;;;;13.27;2.55;;;5.70;77.20;;;;;;4997995;28;20046;-31
2023/01/10 02:31:10;;;;;;;15.80;2.92;;;5.60;24.20;;;;;;4998018;28;20496;-31
2023/01/10 02:34:00;;;;;;;15.63;2.25;;;5.60;40.50;;;;;;5016540;28;20046;-31
2023/01/10 02:36:37;;;;;;;16.73;2.53;;;5.50;8.30;;;;;;5015719;28;20054;-31
2023/01/10 02:39:25;;;;;;;20.63;2.95;;;5.40;64.40;;;;;;5015598;28;20042;-31
2023/01/10 02:42:06;;;;;;;14.73;2.60;;;5.40;94.20;;;;;;5015290;28;20384;-31
2023/01/10 02:44:48;;;;;;;19.83;3.88;;;5.40;99.90;;;;;;5016068;28;20049;-31
2023/01/10 02:47:14;;;;;;;22.25;3.35;;;5.40;99.90;;;;;;5015794;28;20049;-31
2023/01/10 02:49:45;;;;;;;26.70;4.07;;;5.40;99.90;;;;;;5015576;28;20060;-32
2023/01/10 02:52:18;;;;;;;28.35;3.47;;;5.30;99.90;;;;;;4998096;28;20048;-32
2023/01/10 02:54:44;;;;;;;21.55;3.63;;;5.40;99.90;;;;;;5015610;28;20049;-32
2023/01/10 02:57:45;;;;;;;21.45;4.53;;;5.40;99.90;;;;;;5014955;28;20515;-32
2023/01/10 03:00:25;;;;;;;28.33;4.18;;;5.30;99.90;;;;;;5015172;28;20046;-32
2023/01/10 03:03:12;;;;;;;17.23;3.63;;;5.30;99.90;;;;;;5015376;28;20107;-31
2023/01/10 03:05:49;;;;;;;23.00;4.03;;;5.30;99.90;;;;;;4998132;28;20046;-33
2023/01/10 03:08:41;;;;;;;20.50;3.15;;;5.30;99.90;;;;;;4981956;28;20146;-32
2023/01/10 03:11:09;;;;;;;17.88;3.00;;;5.40;99.90;;;;;;4995737;28;20058;-32
2023/01/10 03:13:52;;;;;;;29.40;4.47;;;5.40;99.90;;;;;;4997637;28;20057;-33
2023/01/10 03:16:22;;;;;;;;;;;5.30;99.90;;;;;;5015883;28;20125;-32
2023/01/10 03:18:52;;;;;;;17.15;3.53;;;5.30;99.90;;;;;;5014876;28;19927;-32
2023/01/10 03:21:19;;;;;;;23.45;3.63;;;5.40;99.90;;;;;;5015661;28;20056;-33
2023/01/10 03:23:48;;;;;;;17.33;3.85;;;5.50;99.90;;;;;;5013876;28;20488;-31
2023/01/10 03:26:16;;;;;;;27.27;4.43;;;5.40;99.90;;;;;;5014692;28;20112;-31
2023/01/10 03:28:49;;;;;;;22.02;4.22;;;5.50;99.90;;;;;;5014678;28;20499;-31
2023/01/10 03:31:21;;;;;;;25.63;3.47;;;5.60;99.90;;;;;;5013545;28;20120;-33
2023/01/10 03:33:48;;;;;;;18.52;3.40;;;5.60;99.90;;;;;;5015489;28;20058;-33
2023/01/10 03:36:30;;;;;;;18.52;4.32;;;5.60;99.90;;;;;;4996956;28;20103;-33
2023/01/10 03:39:20;;;;;;;26.05;4.88;;;5.70;99.90;;;;;;4997248;28;20050;-35
2023/01/10 03:42:00;;;;;;;21.10;3.75;;;5.70;99.90;;;;;;4996762;28;20116;-34
2023/01/10 03:44:44;;;;;;;29.40;5.60;;;5.70;99.90;;;;;;5014728;28;20053;-34
2023/01/10 03:47:39;;;;;;;29.75;5.18;;;5.70;99.90;;;;;;5014979;28;20092;-35
2023/01/10 03:50:10;;;;;;;31.27;4.38;;;5.70;99.90;;;;;;5014922;28;20092;-33
2023/01/10 03:52:38;;;;;;;19.27;4.03;;;5.70;99.90;;;;;;5014875;28;20440;-33
2023/01/10 03:55:06;;;;;;;27.75;5.85;;;5.80;99.90;;;;;;5015036;28;20124;-34
2023/01/10 03:57:32;;;;;;;24.85;4.10;;;5.80;99.90;;;;;;5014186;28;20096;-33
2023/01/10 03:59:58;;;;;;;30.88;4.50;;;5.80;99.90;;;;;;4997161;28;20038;-32
2023/01/10 04:02:30;;;;;;;19.92;3.53;;;5.80;99.90;;;;;;5014061;28;20046;-32
2023/01/10 04:04:56;;;;;;;18.40;3.75;;;5.60;99.90;;;;;;5012942;28;20050;-33
2023/01/10 04:07:22;;;;;;;24.75;3.90;;;5.50;99.90;;;;;;5014061;28;20476;-32
2023/01/10 04:09:48;;;;;;;27.05;5.88;;;5.50;99.90;;;;;;4996665;28;20056;-32
2023/01/10 04:12:14;;;;;;;24.33;4.05;;;5.40;99.90;;;;;;5014019;28;20136;-32
2023/01/10 04:14:40;;;;;;;25.63;3.72;;;5.40;99.90;;;;;;4996628;28;20484;-32
2023/01/10 04:17:06;;;;;;;25.58;4.28;;;5.40;99.90;;;;;;5013940;28;20046;-33
2023/01/10 04:19:32;;;;;;;35.75;4.70;;;5.40;99.90;;;;;;5013941;28;20117;-33
2023/01/10 04:21:58;;;;;;;20.52;4.70;;;5.40;99.90;;;;;;5013848;28;20049;-33
2023/01/10 04:24:23;;;;;;;22.63;4.10;;;5.40;99.90;;;;;;5013806;28;20391;-33
2023/01/10 04:26:49;;;;;;;22.35;4.07;;;5.30;99.90;;;;;;5013549;28;20148;-32
2023/01/10 04:29:15;;;;;;;18.92;3.60;;;5.30;99.90;;;;;;5013849;28;20049;-33
2023/01/10 04:31:41;;;;;;;29.38;3.83;;;5.30;99.90;;;;;;4981535;28;20141;-32
2023/01/10 04:34:08;;;;;;;13.73;3.45;;;5.30;99.90;;;;;;5029656;28;20125;-33
2023/01/10 04:36:35;;;;;;;21.95;4.28;;;5.30;99.90;;;;;;5014360;28;20042;-33
2023/01/10 04:39:01;;;;;;;21.33;5.05;;;5.30;99.90;;;;;;5013811;28;20061;-33
2023/01/10 04:41:26;;;;;;;29.80;4.43;;;5.40;99.90;;;;;;5029301;28;20496;-33
2023/01/10 04:43:52;;;;;;;26.83;4.90;;;5.50;99.90;;;;;;5013639;28;20400;-33
2023/01/10 04:46:18;;;;;;;25.75;5.63;;;5.60;99.90;;;;;;5013935;28;20548;-32
2023/01/10 04:48:44;;;;;;;31.13;5.60;;;5.60;99.90;;;;;;5013693;28;20443;-33
2023/01/10 04:51:09;;;;;;;30.27;6.18;;;5.60;99.90;;;;;;5013663;28;20049;-34
2023/01/10 04:53:35;;;;;;;32.17;5.60;;;5.60;99.90;;;;;;5013504;28;20104;-32
2023/01/10 04:56:03;;;;;;;23.15;4.03;;;5.60;99.90;;;;;;5013918;28;20491;-34
2023/01/10 04:58:28;;;;;;;18.33;4.03;;;5.60;99.90;;;;;;5013636;28;20054;-32
2023/01/10 05:00:54;;;;;;;24.67;3.83;;;5.60;99.90;;;;;;5013829;28;20049;-32
2023/01/10 05:03:20;;;;;;;25.38;4.50;;;5.70;99.90;;;;;;5014501;28;20041;-32
2023/01/10 05:05:45;;;;;;;29.02;3.75;;;5.80;99.90;;;;;;5032943;28;20081;-32
2023/01/10 05:08:11;;;;;;;19.50;3.63;;;5.80;99.90;;;;;;5017343;28;20054;-32
2023/01/10 05:10:37;;;;;;;26.02;4.20;;;5.70;99.90;;;;;;5032594;28;20049;-32
2023/01/10 05:13:03;;;;;;;30.90;5.18;;;5.80;99.90;;;;;;5017173;28;20042;-33
2023/01/10 05:15:29;;;;;;;26.83;4.75;;;5.70;99.90;;;;;;5032476;28;20084;-33
2023/01/10 05:17:59;;;;;;;25.38;3.65;;;5.70;99.90;;;;;;5015904;28;20049;-36
2023/01/10 05:20:25;;;;;;;22.35;4.30;;;5.70;99.90;;;;;;5017113;28;20400;-35
2023/01/10 05:22:51;;;;;;;18.45;3.28;;;5.70;99.90;;;;;;5000206;28;20048;-35
2023/01/10 05:25:16;;;;;;;21.27;3.25;;;5.80;99.90;;;;;;5016998;28;20571;-37
2023/01/10 05:27:42;;;;;;;24.10;3.85;;;5.70;99.90;;;;;;5000459;28;20112;-35
2023/01/10 05:30:12;;;;;;;25.33;4.13;;;5.70;99.90;;;;;;5015915;28;20076;-35
2023/01/10 05:32:38;;;;;;;16.08;2.92;;;5.70;99.90;;;;;;5017203;28;20046;-38
2023/01/10 05:35:04;;;;;;;19.75;3.80;;;5.70;99.90;;;;;;5017347;28;20046;-36
2023/01/10 05:37:30;;;;;;;18.98;4.63;;;5.70;99.90;;;;;;5016739;28;20054;-35
2023/01/10 05:39:55;;;;;;;16.75;2.65;;;5.70;99.90;;;;;;5016698;28;20132;-36
2023/01/10 05:42:21;;;;;;;18.00;3.22;;;5.70;99.90;;;;;;5016932;28;20038;-35
2023/01/10 05:44:47;;;;;;;20.73;3.50;;;5.70;99.90;;;;;;4999305;28;20560;-38
2023/01/10 05:47:13;;;;;;;18.55;3.50;;;5.80;99.90;;;;;;5016932;28;20057;-37
2023/01/10 05:49:38;;;;;;;17.90;3.47;;;5.70;99.90;;;;;;5016430;28;20057;-40
2023/01/10 05:52:04;;;;;;;19.02;3.05;;;5.70;99.90;;;;;;4999385;28;20092;-36
2023/01/10 05:54:30;;;;;;;22.88;3.60;;;5.70;99.90;;;;;;5016295;28;20419;-35
2023/01/10 05:56:56;;;;;;;19.55;3.38;;;5.60;99.90;;;;;;4998709;28;20551;-35
2023/01/10 05:59:21;;;;;;;18.95;2.67;;;5.50;99.90;;;;;;5016190;28;20200;-35
2023/01/10 06:01:47;;;;;;;19.08;3.22;;;5.60;99.90;;;;;;5016894;28;20129;-36
2023/01/10 06:04:13;;;;;;;17.73;3.55;;;5.70;99.90;;;;;;5016122;28;20046;-35
2023/01/10 06:06:39;;;;;;;22.00;3.28;;;5.60;99.90;;;;;;4998625;28;20054;-35
2023/01/10 06:09:05;;;;;;;18.70;3.13;;;5.70;99.90;;;;;;5016677;28;20045;-35
2023/01/10 06:11:35;;;;;;;16.20;3.08;;;5.60;99.90;;;;;;5015756;28;20440;-34
2023/01/10 06:14:01;;;;;;;18.70;3.97;;;5.50;99.90;;;;;;5016002;28;20069;-34
2023/01/10 06:16:27;;;;;;;13.55;2.40;;;5.50;99.90;;;;;;4999308;28;20053;-34
2023/01/10 06:18:53;;;;;;;13.70;2.50;;;5.40;99.90;;;;;;4999278;28;20103;-34
2023/01/10 06:21:18;;;;;;;18.63;3.25;;;5.40;99.90;;;;;;5015969;28;20049;-34
2023/01/10 06:23:44;;;;;;;13.23;2.83;;;5.40;99.90;;;;;;5014604;28;20042;-34
2023/01/10 06:26:10;;;;;;;14.55;2.63;;;5.30;99.90;;;;;;5016402;28;20057;-34
2023/01/10 06:28:36;;;;;;;17.63;2.83;;;5.30;99.90;;;;;;5015686;28;20058;-35
2023/01/10 06:31:02;;;;;;;22.23;2.78;;;5.30;99.90;;;;;;5015780;28;20104;-35
2023/01/10 06:33:27;;;;;;;12.15;2.05;;;5.20;99.90;;;;;;5016047;28;20049;-34
2023/01/10 06:35:53;;;;;;;12.77;2.45;;;5.20;99.90;;;;;;5015666;28;20053;-34
2023/01/10 06:38:19;;;;;;;17.25;2.42;;;5.10;99.90;;;;;;5016148;28;20049;-33
2023/01/10 06:40:45;;;;;;;18.63;2.80;;;5.00;99.90;;;;;;5016216;28;20100;-34
2023/01/10 06:43:10;;;;;;;17.35;2.47;;;4.90;99.90;;;;;;4998052;28;20054;-34
2023/01/10 06:45:36;;;;;;;16.95;2.22;;;5.00;99.90;;;;;;5016036;28;20144;-34
2023/01/10 06:48:02;;;;;;;16.35;3.25;;;5.00;99.90;;;;;;5015544;28;20483;-33
2023/01/10 06:50:28;;;;;;;20.67;3.28;;;5.00;99.90;;;;;;5015450;28;20052;-34
2023/01/10 06:52:58;;;;;;;16.48;2.40;;;4.90;99.90;;;;;;4998080;28;20052;-34
2023/01/10 06:55:25;;;;;;;17.52;2.10;;;4.80;99.90;;;;;;5015294;28;20045;-34
2023/01/10 06:57:58;;;;;;;12.13;2.40;;;4.70;99.90;;;;;;5014917;28;20539;-33
2023/01/10 07:00:26;;;;;;;14.60;2.20;;;4.70;99.90;;;;;;5015315;28;20050;-34
2023/01/10 07:02:53;;;;;;;10.93;2.72;;;4.50;99.90;;;;;;5013929;28;20045;-33
2023/01/10 07:05:20;;;;;;;14.77;2.95;;;4.50;99.90;;;;;;5015175;28;20062;-34
2023/01/10 07:07:45;;;;;;;20.50;3.90;;;4.70;99.90;;;;;;5015061;28;20046;-35
2023/01/10 07:10:11;;;;;;;20.83;4.05;;;4.70;99.90;;;;;;4997447;28;20100;-34
2023/01/10 07:12:37;;;;;;;21.65;5.10;;;4.80;99.90;;;;;;5015007;28;20057;-34
2023/01/10 07:15:03;;;;;;;19.23;3.85;;;5.00;99.90;;;;;;5014992;28;20076;-34
2023/01/10 07:17:29;;;;;;;27.15;5.75;;;5.10;99.90;;;;;;5014926;28;20054;-34
2023/01/10 07:19:55;;;;;;;32.72;5.32;;;5.10;99.90;;;;;;5014516;28;20045;-34
2023/01/10 07:22:21;;;;;;;35.00;6.05;;;5.20;99.90;;;;;;5015342;28;20050;-33
2023/01/10 07:24:47;;;;;;;30.75;5.63;;;5.20;99.90;;;;;;5014714;28;20046;-33
2023/01/10 07:27:12;;;;;;;28.95;5.57;;;5.30;99.90;;;;;;5012979;28;20046;-34
2023/01/10 07:29:38;;;;;;;26.67;5.57;;;5.30;99.90;;;;;;4997374;28;20048;-33
2023/01/10 07:32:05;;;;;;;24.13;5.20;;;5.30;99.90;;;;;;5014597;28;20539;-33
2023/01/10 07:34:31;;;;;;;26.15;5.90;;;5.30;99.90;;;;;;5014307;28;20496;-34
2023/01/10 07:36:57;;;;;;;30.88;7.32;;;5.30;99.90;;;;;;5015121;28;20041;-34
2023/01/10 07:39:22;;;;;;;23.80;4.93;;;5.30;99.90;;;;;;5014521;28;20104;-33
2023/01/10 07:41:49;;;;;;;24.10;4.53;;;5.30;99.90;;;;;;5014379;28;20085;-33
2023/01/10 07:44:15;;;;;;;30.60;6.07;;;5.20;99.90;;;;;;5014414;28;20037;-34
2023/01/10 07:46:41;;;;;;;28.30;5.95;;;5.30;99.90;;;;;;5014394;28;20096;-35
2023/01/10 07:49:07;;;;;;;32.35;6.10;;;5.30;99.90;;;;;;5014342;28;20509;-34
2023/01/10 07:51:33;;;;;;;24.52;5.18;;;5.40;99.90;;;;;;5014912;28;20046;-34
2023/01/10 07:53:58;;;;;;;31.05;6.63;;;5.50;99.90;;;;;;4997249;28;20427;-34
2023/01/10 07:56:24;;;;;;;35.15;6.28;;;5.60;99.90;;;;;;5014283;28;20072;-33
2023/01/10 07:58:50;;;;;;;44.75;7.93;;;5.70;99.90;;;;;;5014198;28;20054;-33
2023/01/10 08:01:16;;;;;;;47.92;8.60;;;5.70;99.90;;;;;;5013074;28;20507;-33
2023/01/10 08:03:41;;;;;;;34.00;6.50;;;5.50;99.90;;;;;;5014097;28;20128;-35
2023/01/10 08:06:11;;;;;;;35.70;6.85;;;5.50;99.90;;;;;;5014105;28;20539;-33
2023/01/10 08:08:37;;;;;;;42.15;6.40;;;5.40;99.90;;;;;;5014110;28;20048;-34
2023/01/10 08:11:04;;;;;;;30.13;4.93;;;5.30;99.90;;;;;;4980304;28;20049;-34
2023/01/10 08:13:30;;;;;;;29.75;6.70;;;5.20;99.90;;;;;;5014060;28;20044;-33
2023/01/10 08:15:56;;;;;;;34.83;9.20;;;5.20;99.90;;;;;;5014002;28;20049;-33
2023/01/10 08:18:23;;;;;;;34.70;7.57;;;5.10;99.90;;;;;;5014005;28;20467;-34
2023/01/10 08:20:50;;;;;;;27.80;6.05;;;5.00;99.90;;;;;;5013943;28;20112;-34
2023/01/10 08:23:17;;;;;;;29.20;6.47;;;5.00;99.90;;;;;;5013820;28;20052;-33
2023/01/10 08:25:44;;;;;;;26.50;5.60;;;5.00;99.90;;;;;;5013825;28;20060;-34
2023/01/10 08:28:09;;;;;;;38.42;7.70;;;5.00;99.90;;;;;;4980027;28;20137;-33
2023/01/10 08:30:36;;;;;;;40.80;6.18;;;5.10;99.90;;;;;;5013841;28;20124;-34
2023/01/10 08:33:03;;;;;;;28.02;6.70;;;5.00;99.90;;;;;;5014156;28;20072;-33
2023/01/10 08:35:29;;;;;;;43.90;6.82;;;5.00;99.90;;;;;;5013766;28;20050;-33
2023/01/10 08:37:58;;;;;;;30.20;6.95;;;5.10;99.90;;;;;;5014395;28;20046;-33
2023/01/10 08:40:25;;;;;;;33.78;6.90;;;5.10;99.90;;;;;;5017803;28;20451;-33
2023/01/10 08:43:02;;;;;;;28.40;6.22;;;5.10;99.90;;;;;;5017679;28;20042;-35
2023/01/10 08:45:28;;;;;;;27.15;6.50;;;5.10;99.90;;;;;;5018555;28;20045;-34
2023/01/10 08:47:54;;;;;;;38.78;6.65;;;5.10;99.90;;;;;;5017717;28;20046;-34
2023/01/10 08:50:21;;;;;;;42.15;7.07;;;5.20;99.90;;;;;;5017615;28;20054;-34
2023/01/10 08:52:47;;;;;;;31.83;6.65;;;5.20;99.90;;;;;;5017639;28;20093;-33
2023/01/10 08:55:12;;;;;;;32.00;5.68;;;5.30;99.90;;;;;;5017601;28;20611;-34
2023/01/10 08:57:38;;;;;;;34.55;5.43;;;5.40;99.90;;;;;;5017203;28;20526;-34
2023/01/10 09:00:04;;;;;;;40.78;7.78;;;5.40;99.90;;;;;;5016318;28;20053;-35
2023/01/10 09:02:30;;;;;;;44.50;7.85;;;5.40;99.90;;;;;;5017353;28;20041;-33
2023/01/10 09:04:56;;;;;;;24.75;6.85;;;5.50;99.90;;;;;;5017693;28;20049;-33
2023/01/10 09:07:22;;;;;;;28.50;5.97;;;5.60;99.90;;;;;;5016993;28;20049;-34
2023/01/10 09:09:48;;;;;;;38.42;8.05;;;5.60;99.90;;;;;;5000506;28;20369;-34
2023/01/10 09:14:58;;;;;;;39.33;8.20;;;5.90;99.90;;;;;;5017225;28;20056;-34
2023/01/10 09:17:24;;;;;;;35.13;7.15;;;6.00;99.90;;;;;;5017176;28;20046;-33
2023/01/10 09:19:50;;;;;;;28.70;5.25;;;6.10;99.90;;;;;;4999622;28;20480;-33
2023/01/10 09:22:15;;;;;;;22.55;4.90;;;6.20;99.90;;;;;;5000258;28;20050;-34
2023/01/10 09:24:42;;;;;;;25.67;4.47;;;6.20;99.90;;;;;;5016945;28;20049;-33
2023/01/10 09:27:10;;;;;;;21.42;3.97;;;6.10;99.90;;;;;;4999489;28;20046;-33
2023/01/10 09:29:35;;;;;;;23.88;4.53;;;6.00;99.90;;;;;;5016899;28;20042;-34
2023/01/10 09:32:01;;;;;;;27.77;5.60;;;6.00;99.90;;;;;;5016948;28;20148;-34
2023/01/10 09:34:27;;;;;;;33.88;5.50;;;6.00;99.90;;;;;;5016834;28;20539;-35
2023/01/10 09:36:53;;;;;;;22.23;4.78;;;6.00;99.90;;;;;;4999513;28;20557;-34
2023/01/10 09:39:20;;;;;;;22.98;4.82;;;5.90;99.90;;;;;;5000256;28;20136;-34
2023/01/10 09:42:01;;;;;;;29.85;8.65;;;6.00;99.90;;;;;;4990489;28;20049;-34
2023/01/10 09:44:55;;;;;;;26.50;5.78;;;6.00;99.90;;;;;;5031951;28;20526;-34
2023/01/10 09:47:42;;;;;;;18.90;4.40;;;6.00;99.90;;;;;;5030685;28;20045;-35
2023/01/10 09:50:46;;;;;;;23.77;4.03;;;6.00;99.90;;;;;;5034118;28;20049;-35
2023/01/10 09:53:22;;;;;;;21.23;3.88;;;6.00;99.90;;;;;;5031201;28;20077;-33
2023/01/10 09:55:59;;;;;;;26.63;5.72;;;6.00;99.90;;;;;;5019216;28;20132;-35
2023/01/10 09:58:28;;;;;;;27.13;6.15;;;6.00;99.90;;;;;;5019147;28;20383;-34
2023/01/10 10:00:57;;;;;;;29.10;5.45;;;6.10;99.90;;;;;;5002071;28;20060;-34
2023/01/10 10:03:59;;;;;;;31.40;6.55;;;6.10;99.90;;;;;;5018460;28;20103;-33
2023/01/10 10:06:25;;;;;;;28.83;6.68;;;6.20;99.90;;;;;;5036089;28;20045;-35
2023/01/10 10:08:51;;;;;;;25.48;5.68;;;6.20;99.90;;;;;;5036004;28;20052;-33
2023/01/10 10:11:41;;;;;;;26.10;5.35;;;6.30;99.90;;;;;;5018364;28;20049;-35
2023/01/10 10:14:20;;;;;;;28.25;5.55;;;6.30;99.90;;;;;;5036244;28;20080;-33
2023/01/10 10:17:13;;;;;;;21.92;4.95;;;6.30;99.90;;;;;;5035896;28;20049;-33
2023/01/10 10:20:06;;;;;;;35.60;5.38;;;6.40;99.90;;;;;;5035836;28;20060;-33
2023/01/10 10:22:47;;;;;;;27.42;4.80;;;6.40;99.90;;;;;;5018587;28;20041;-34
2023/01/10 10:25:13;;;;;;;26.63;5.78;;;6.40;99.90;;;;;;5035645;28;20061;-33
2023/01/10 10:28:07;;;;;;;28.33;5.40;;;6.40;99.90;;;;;;5035890;28;20132;-33
2023/01/10 10:30:55;;;;;;;36.33;6.90;;;6.40;99.90;;;;;;5031432;28;20056;-34
2023/01/10 10:33:39;;;;;;;34.85;6.88;;;6.40;99.90;;;;;;5035828;28;20133;-33
2023/01/10 10:36:18;;;;;;;34.58;6.35;;;6.40;99.90;;;;;;5018132;28;20049;-34
2023/01/10 10:38:46;;;;;;;24.90;5.22;;;6.50;99.90;;;;;;5035464;28;20041;-35
2023/01/10 10:41:26;;;;;;;32.15;6.43;;;6.50;99.90;;;;;;5035352;28;20041;-34
2023/01/10 10:43:54;;;;;;;34.25;5.63;;;6.50;99.90;;;;;;5035294;28;20085;-33
2023/01/10 10:46:21;;;;;;;27.02;4.53;;;6.60;99.90;;;;;;5035285;28;20050;-33
2023/01/10 10:48:57;;;;;;;23.13;4.65;;;6.60;99.90;;;;;;5035208;28;20084;-33
2023/01/10 10:51:37;;;;;;;31.23;5.88;;;6.60;99.90;;;;;;5001323;28;20545;-34
2023/01/10 10:54:05;;;;;;;25.50;5.28;;;6.70;99.90;;;;;;5018546;28;20132;-33
2023/01/10 10:56:31;;;;;;;33.60;7.55;;;6.70;99.90;;;;;;5035376;28;20443;-34
2023/01/10 10:58:59;;;;;;;30.73;7.80;;;6.70;90.40;;;;;;5035041;28;20128;-33
2023/01/10 11:01:25;;;;;;;25.10;5.68;;;6.80;95.60;;;;;;5034111;28;20046;-34
2023/01/10 11:03:56;;;;;;;25.45;5.95;;;6.80;1.00;;;;;;5017189;28;20072;-34
2023/01/10 11:06:28;;;;;;;28.90;6.30;;;6.80;23.70;;;;;;5035755;28;20056;-33
2023/01/10 11:09:00;;;;;;;25.20;5.50;;;6.80;1.00;;;;;;5035185;28;20041;-33
2023/01/10 11:11:30;;;;;;;22.55;5.07;;;6.80;15.90;;;;;;5017219;28;20041;-33
2023/01/10 11:13:58;;;;;;;23.92;6.72;;;6.80;11.10;;;;;;5034830;28;20046;-33
2023/01/10 11:16:29;;;;;;;29.77;6.35;;;6.80;1.00;;;;;;5035235;28;20092;-34
2023/01/10 11:19:16;;;;;;;34.05;6.72;;;6.80;1.00;;;;;;5034935;28;20053;-33
2023/01/10 11:22:08;;;;;;;26.25;5.93;;;6.80;1.00;;;;;;5034608;28;20046;-33
2023/01/10 11:24:55;;;;;;;27.25;6.40;;;6.70;1.00;;;;;;5034497;28;20052;-32
2023/01/10 11:27:25;;;;;;;31.50;6.28;;;6.80;1.00;;;;;;5035379;28;20048;-33
2023/01/10 11:29:56;;;;;;;28.70;8.20;;;6.80;2.00;;;;;;5016848;28;20115;-33
2023/01/10 11:32:30;;;;;;;38.45;6.68;;;6.90;35.70;;;;;;5034623;28;20105;-32
2023/01/10 11:34:58;;;;;;;25.85;6.72;;;6.80;1.00;;;;;;5017043;28;20057;-32
2023/01/10 11:37:31;;;;;;;25.48;6.88;;;6.90;1.00;;;;;;5034388;28;20057;-32
2023/01/10 11:40:15;;;;;;;27.83;8.37;;;6.80;1.00;;;;;;5035296;28;20045;-33
2023/01/10 11:42:41;;;;;;;44.25;8.23;;;6.80;1.00;;;;;;5017099;28;20465;-32
2023/01/10 11:45:16;;;;;;;38.97;8.00;;;6.90;1.00;;;;;;5016801;28;20067;-32
2023/01/10 11:47:55;;;;;;;28.80;7.95;;;6.80;37.00;;;;;;5033879;28;20041;-32
2023/01/10 11:50:25;;;;;;;40.38;10.25;;;6.90;1.00;;;;;;5034960;28;20116;-33
2023/01/10 11:52:51;;;;;;;34.88;9.63;;;6.80;44.90;;;;;;5016928;28;20044;-33
2023/01/10 11:55:20;;;;;;;33.28;9.23;;;6.80;40.90;;;;;;5016922;28;20053;-32
2023/01/10 11:57:55;;;;;;;28.05;9.23;;;6.90;5.00;;;;;;5000247;28;20061;-32
2023/01/10 12:00:21;;;;;;;38.70;10.18;;;6.80;1.00;;;;;;5034288;28;20049;-32
2023/01/10 12:02:49;;;;;;;30.40;8.13;;;6.80;1.00;;;;;;5033847;28;20434;-32
2023/01/10 12:05:20;;;;;;;37.05;9.38;;;6.70;1.00;;;;;;5034697;28;20054;-32
2023/01/10 12:08:05;;;;;;;37.40;9.10;;;6.80;1.00;;;;;;5033817;28;20097;-32
2023/01/10 12:10:32;;;;;;;35.92;10.73;;;6.70;1.00;;;;;;5017046;28;20045;-32
2023/01/10 12:13:11;;;;;;;40.65;9.88;;;6.70;1.00;;;;;;5015897;28;20083;-32
2023/01/10 12:15:37;;;;;;;32.10;8.52;;;6.70;1.00;;;;;;5034373;28;20049;-33
2023/01/10 12:18:05;;;;;;;29.70;8.85;;;6.70;1.00;;;;;;5033709;28;20506;-32
2023/01/10 12:20:36;;;;;;;34.17;9.07;;;6.60;1.00;;;;;;4999941;28;20049;-32
2023/01/10 12:23:15;;;;;;;36.88;9.23;;;6.50;1.00;;;;;;5034187;28;20053;-31
2023/01/10 12:25:42;;;;;;;31.85;8.25;;;6.60;1.00;;;;;;5016189;28;20082;-32
2023/01/10 12:28:22;;;;;;;33.53;6.97;;;6.50;1.00;;;;;;5016467;28;20080;-32
2023/01/10 12:30:51;;;;;;;29.15;9.13;;;6.60;1.00;;;;;;5016240;28;20049;-31
2023/01/10 12:33:45;;;;;;;34.47;8.68;;;6.50;1.00;;;;;;5033857;28;20435;-32
2023/01/10 12:37:01;;;;;;;31.70;9.02;;;6.50;1.00;;;;;;5033605;28;20103;-32
2023/01/10 12:39:34;;;;;;;30.88;8.02;;;6.50;1.00;;;;;;4990978;28;20057;-32
2023/01/10 12:45:11;;;;;;;36.33;8.90;;;6.50;1.00;;;;;;5034053;28;20096;-32
2023/01/10 12:48:23;;;;;;;33.13;9.82;;;6.50;1.00;;;;;;5032863;28;20057;-32
2023/01/10 12:51:03;;;;;;;35.25;8.43;;;6.50;1.00;;;;;;5008041;28;20488;-31
2023/01/10 12:53:46;;;;;;;29.90;9.52;;;6.50;1.00;;;;;;5034230;28;20064;-31
2023/01/10 12:56:15;;;;;;;42.28;9.15;;;6.50;1.00;;;;;;5034207;28;20048;-31
2023/01/10 12:58:43;;;;;;;29.48;8.25;;;6.50;1.00;;;;;;5033269;28;20059;-31
2023/01/10 13:01:14;;;;;;;29.15;8.00;;;6.50;1.00;;;;;;5033887;28;20041;-32
2023/01/10 13:03:40;;;;;;;25.52;7.18;;;6.50;99.90;;;;;;5016241;28;20046;-32
2023/01/10 13:06:06;;;;;;;27.92;7.78;;;6.50;99.90;;;;;;4999203;28;20053;-33
2023/01/10 13:08:34;;;;;;;31.77;7.30;;;6.40;99.90;;;;;;4999542;28;20103;-31
2023/01/10 13:11:01;;;;;;;23.90;5.85;;;6.40;99.90;;;;;;4999421;28;20061;-32
2023/01/10 13:13:41;;;;;;;33.10;6.90;;;6.40;99.90;;;;;;5033382;28;20494;-31
2023/01/10 13:16:43;;;;;;;31.13;7.28;;;6.40;99.90;;;;;;5000251;28;20061;-33
2023/01/10 13:19:09;;;;;;;28.85;7.10;;;6.40;99.90;;;;;;5015598;28;20096;-32
2023/01/10 13:21:36;;;;;;;27.42;8.13;;;6.40;99.90;;;;;;5033123;28;20080;-31